createdAt,value
2017-06-02T00:00:39.115Z,1013.77
2017-06-02T00:01:49.044Z,1013.79
2017-06-02T00:02:58.654Z,1013.75
2017-06-02T00:04:08.422Z,1013.76
2017-06-02T00:05:17.723Z,1013.73
2017-06-02T00:06:27.337Z,1013.73
2017-06-02T00:07:36.969Z,1013.74
2017-06-02T00:08:46.888Z,1013.72
2017-06-02T00:09:56.514Z,1013.71
2017-06-02T00:11:05.823Z,1013.69
2017-06-02T00:12:15.186Z,1013.67
2017-06-02T00:13:25.129Z,1013.61
2017-06-02T00:14:35.052Z,1013.62
2017-06-02T00:15:44.983Z,1013.68
2017-06-02T00:16:54.290Z,1013.63
2017-06-02T00:18:04.525Z,1013.63
2017-06-02T00:19:14.442Z,1013.64
2017-06-02T00:20:24.364Z,1013.63
2017-06-02T00:21:33.421Z,1013.64
2017-06-02T00:22:43.636Z,1013.66
2017-06-02T00:23:53.883Z,1013.62
2017-06-02T00:25:04.130Z,1013.6
2017-06-02T00:26:14.360Z,1013.58
2017-06-02T00:27:24.157Z,1013.56
2017-06-02T00:28:34.095Z,1013.55
2017-06-02T00:29:44.013Z,1013.6
2017-06-02T00:30:53.935Z,1013.54
2017-06-02T00:32:03.861Z,1013.55
2017-06-02T00:33:13.820Z,1013.52
2017-06-02T00:34:23.755Z,1013.47
2017-06-02T00:35:33.688Z,1013.51
2017-06-02T00:36:43.921Z,1013.49
2017-06-02T00:37:53.552Z,1013.47
2017-06-02T00:39:03.508Z,1013.48
2017-06-02T00:40:13.446Z,1013.47
2017-06-02T00:41:23.065Z,1013.42
2017-06-02T00:42:32.980Z,1013.42
2017-06-02T00:43:42.594Z,1013.42
2017-06-02T00:44:52.208Z,1013.4
2017-06-02T00:46:02.152Z,1013.43
2017-06-02T00:47:11.158Z,1013.42
2017-06-02T00:48:21.391Z,1013.38
2017-06-02T00:49:31.333Z,1013.38
2017-06-02T00:50:41.432Z,1013.41
2017-06-02T00:51:51.397Z,1013.32
2017-06-02T00:53:01.335Z,1013.32
2017-06-02T00:54:10.944Z,1013.29
2017-06-02T00:55:20.301Z,1013.28
2017-06-02T00:56:30.372Z,1013.29
2017-06-02T00:57:41.902Z,1013.28
2017-06-02T00:58:53.402Z,1013.29
2017-06-02T01:00:03.324Z,1013.29
2017-06-02T01:01:13.264Z,1013.3
2017-06-02T01:02:23.242Z,1013.27
2017-06-02T01:03:33.168Z,1013.26
2017-06-02T01:04:43.410Z,1013.28
2017-06-02T01:05:53.080Z,1013.26
2017-06-02T01:07:03.009Z,1013.24
2017-06-02T01:08:12.983Z,1013.24
2017-06-02T01:09:22.604Z,1013.25
2017-06-02T01:10:32.546Z,1013.22
2017-06-02T01:11:42.471Z,1013.21
2017-06-02T01:12:52.087Z,1013.21
2017-06-02T01:14:01.841Z,1013.21
2017-06-02T01:15:11.145Z,1013.17
2017-06-02T01:16:21.374Z,1013.21
2017-06-02T01:17:30.989Z,1013.18
2017-06-02T01:18:40.310Z,1013.21
2017-06-02T01:19:50.535Z,1013.22
2017-06-02T01:21:00.777Z,1013.21
2017-06-02T01:22:10.722Z,1013.23
2017-06-02T01:23:20.637Z,1013.22
2017-06-02T01:24:30.555Z,1013.22
2017-06-02T01:25:40.827Z,1013.26
2017-06-02T01:26:50.751Z,1013.23
2017-06-02T01:28:01.001Z,1013.22
2017-06-02T01:29:10.316Z,1013.21
2017-06-02T01:30:19.942Z,1013.2
2017-06-02T01:31:29.297Z,1013.23
2017-06-02T01:32:39.541Z,1013.22
2017-06-02T01:33:49.468Z,1013.2
2017-06-02T01:34:59.425Z,1013.19
2017-06-02T01:36:09.061Z,1013.13
2017-06-02T01:37:18.391Z,1013.13
2017-06-02T01:38:28.025Z,1013.14
2017-06-02T01:39:37.961Z,1013.11
2017-06-02T01:40:47.909Z,1013.09
2017-06-02T01:41:58.186Z,1013.09
2017-06-02T01:43:07.561Z,1013.11
2017-06-02T01:44:17.517Z,1013.09
2017-06-02T01:45:27.166Z,1013.09
2017-06-02T01:46:37.485Z,1013.01
2017-06-02T01:47:47.405Z,1013.04
2017-06-02T01:48:57.062Z,1013.06
2017-06-02T01:50:06.692Z,1013.02
2017-06-02T01:51:16.619Z,1013.02
2017-06-02T01:52:26.545Z,1012.99
2017-06-02T01:53:36.778Z,1013.04
2017-06-02T01:54:46.722Z,1013.01
2017-06-02T01:55:56.650Z,1013.01
2017-06-02T01:57:06.887Z,1012.99
2017-06-02T01:58:17.107Z,1013
2017-06-02T01:59:27.332Z,1012.98
2017-06-02T02:00:37.250Z,1012.97
2017-06-02T02:01:46.865Z,1012.96
2017-06-02T02:02:56.481Z,1012.98
2017-06-02T02:04:06.110Z,1012.93
2017-06-02T02:05:16.339Z,1012.95
2017-06-02T02:06:26.391Z,1012.95
2017-06-02T02:07:36.317Z,1012.94
2017-06-02T02:08:45.933Z,1012.92
2017-06-02T02:09:55.546Z,1012.92
2017-06-02T02:11:05.176Z,1012.92
2017-06-02T02:12:15.397Z,1012.87
2017-06-02T02:13:25.015Z,1012.87
2017-06-02T02:14:34.626Z,1012.9
2017-06-02T02:15:44.854Z,1012.89
2017-06-02T02:17:07.547Z,1012.89
2017-06-02T02:18:16.955Z,1012.86
2017-06-02T02:19:26.588Z,1012.87
2017-06-02T02:20:35.904Z,1012.88
2017-06-02T02:21:45.527Z,1012.88
2017-06-02T02:22:55.812Z,1012.87
2017-06-02T02:24:05.745Z,1012.83
2017-06-02T02:25:15.683Z,1012.83
2017-06-02T02:26:25.295Z,1012.8
2017-06-02T02:27:34.923Z,1012.79
2017-06-02T02:28:45.207Z,1012.83
2017-06-02T02:29:54.822Z,1012.84
2017-06-02T02:31:06.314Z,1012.82
2017-06-02T02:32:15.941Z,1012.8
2017-06-02T02:33:26.183Z,1012.78
2017-06-02T02:34:36.416Z,1012.79
2017-06-02T02:35:46.357Z,1012.78
2017-06-02T02:36:55.682Z,1012.76
2017-06-02T02:38:05.913Z,1012.75
2017-06-02T02:39:15.233Z,1012.75
2017-06-02T02:40:24.997Z,1012.76
2017-06-02T02:41:34.616Z,1012.73
2017-06-02T02:42:44.553Z,1012.73
2017-06-02T02:43:54.481Z,1012.72
2017-06-02T02:45:04.094Z,1012.73
2017-06-02T02:46:14.024Z,1012.7
2017-06-02T02:47:23.955Z,1012.71
2017-06-02T02:48:33.569Z,1012.69
2017-06-02T02:49:43.788Z,1012.72
2017-06-02T02:50:54.020Z,1012.66
2017-06-02T02:52:03.812Z,1012.67
2017-06-02T02:53:13.745Z,1012.66
2017-06-02T02:54:23.655Z,1012.66
2017-06-02T02:55:32.975Z,1012.64
2017-06-02T02:56:42.914Z,1012.66
2017-06-02T02:57:52.999Z,1012.66
2017-06-02T02:59:03.224Z,1012.67
2017-06-02T03:00:12.544Z,1012.67
2017-06-02T03:01:22.764Z,1012.64
2017-06-02T03:02:31.771Z,1012.67
2017-06-02T03:03:41.751Z,1012.65
2017-06-02T03:04:51.692Z,1012.68
2017-06-02T03:06:01.931Z,1012.67
2017-06-02T03:07:11.858Z,1012.68
2017-06-02T03:08:21.796Z,1012.7
2017-06-02T03:09:31.866Z,1012.66
2017-06-02T03:10:42.118Z,1012.71
2017-06-02T03:11:52.055Z,1012.67
2017-06-02T03:13:01.676Z,1012.65
2017-06-02T03:14:11.283Z,1012.66
2017-06-02T03:15:21.542Z,1012.7
2017-06-02T03:16:31.794Z,1012.71
2017-06-02T03:17:41.413Z,1012.71
2017-06-02T03:18:51.645Z,1012.7
2017-06-02T03:20:01.900Z,1012.72
2017-06-02T03:21:11.516Z,1012.69
2017-06-02T03:22:21.442Z,1012.67
2017-06-02T03:23:31.395Z,1012.68
2017-06-02T03:24:41.633Z,1012.7
2017-06-02T03:25:51.554Z,1012.69
2017-06-02T03:27:01.281Z,1012.67
2017-06-02T03:28:11.219Z,1012.69
2017-06-02T03:29:21.131Z,1012.71
2017-06-02T03:30:31.373Z,1012.68
2017-06-02T03:31:40.992Z,1012.68
2017-06-02T03:32:50.443Z,1012.68
2017-06-02T03:34:00.069Z,1012.67
2017-06-02T03:35:09.375Z,1012.59
2017-06-02T03:36:19.319Z,1012.64
2017-06-02T03:37:29.247Z,1012.64
2017-06-02T03:38:39.016Z,1012.64
2017-06-02T03:39:48.325Z,1012.66
2017-06-02T03:40:58.263Z,1012.67
2017-06-02T03:42:08.517Z,1012.69
2017-06-02T03:43:18.430Z,1012.65
2017-06-02T03:44:28.158Z,1012.64
2017-06-02T03:45:37.776Z,1012.63
2017-06-02T03:46:46.787Z,1012.63
2017-06-02T03:47:56.409Z,1012.63
2017-06-02T03:49:06.325Z,1012.63
2017-06-02T03:50:16.092Z,1012.64
2017-06-02T03:51:26.057Z,1012.62
2017-06-02T03:52:35.998Z,1012.61
2017-06-02T03:53:46.159Z,1012.64
2017-06-02T03:54:56.399Z,1012.62
2017-06-02T03:56:06.020Z,1012.6
2017-06-02T03:57:15.662Z,1012.63
2017-06-02T03:58:25.583Z,1012.61
2017-06-02T03:59:35.812Z,1012.57
2017-06-02T04:00:45.118Z,1012.58
2017-06-02T04:01:55.537Z,1012.6
2017-06-02T04:03:05.779Z,1012.57
2017-06-02T04:04:15.705Z,1012.58
2017-06-02T04:05:25.325Z,1012.59
2017-06-02T04:06:34.941Z,1012.61
2017-06-02T04:07:45.178Z,1012.58
2017-06-02T04:08:55.411Z,1012.56
2017-06-02T04:10:05.639Z,1012.55
2017-06-02T04:11:15.574Z,1012.55
2017-06-02T04:12:25.808Z,1012.54
2017-06-02T04:13:36.090Z,1012.54
2017-06-02T04:14:45.458Z,1012.58
2017-06-02T04:15:55.386Z,1012.61
2017-06-02T04:17:04.732Z,1012.59
2017-06-02T04:18:14.047Z,1012.6
2017-06-02T04:19:24.033Z,1012.61
2017-06-02T04:20:34.278Z,1012.64
2017-06-02T04:21:44.202Z,1012.59
2017-06-02T04:22:54.149Z,1012.58
2017-06-02T04:24:03.496Z,1012.57
2017-06-02T04:25:12.942Z,1012.54
2017-06-02T04:26:23.206Z,1012.59
2017-06-02T04:27:33.156Z,1012.52
2017-06-02T04:28:42.784Z,1012.57
2017-06-02T04:29:52.407Z,1012.54
2017-06-02T04:31:02.487Z,1012.51
2017-06-02T04:32:12.842Z,1012.53
2017-06-02T04:33:22.460Z,1012.54
2017-06-02T04:34:32.081Z,1012.55
2017-06-02T04:35:41.407Z,1012.53
2017-06-02T04:36:51.490Z,1012.51
2017-06-02T04:38:01.118Z,1012.48
2017-06-02T04:39:10.461Z,1012.49
2017-06-02T04:40:20.447Z,1012.52
2017-06-02T04:41:30.713Z,1012.5
2017-06-02T04:42:40.190Z,1012.51
2017-06-02T04:43:50.138Z,1012.48
2017-06-02T04:45:00.070Z,1012.5
2017-06-02T04:46:10.023Z,1012.49
2017-06-02T04:47:20.278Z,1012.5
2017-06-02T04:48:30.238Z,1012.51
2017-06-02T04:49:40.174Z,1012.48
2017-06-02T04:50:50.417Z,1012.44
2017-06-02T04:52:00.354Z,1012.51
2017-06-02T04:53:09.730Z,1012.48
2017-06-02T04:54:19.716Z,1012.5
2017-06-02T04:55:29.327Z,1012.49
2017-06-02T04:56:39.245Z,1012.5
2017-06-02T04:57:48.844Z,1012.51
2017-06-02T04:58:58.756Z,1012.47
2017-06-02T05:00:08.664Z,1012.47
2017-06-02T05:01:18.005Z,1012.46
2017-06-02T05:02:28.267Z,1012.49
2017-06-02T05:03:37.564Z,1012.47
2017-06-02T05:04:47.164Z,1012.45
2017-06-02T05:05:56.939Z,1012.4
2017-06-02T05:07:07.160Z,1012.45
2017-06-02T05:08:16.478Z,1012.45
2017-06-02T05:09:26.089Z,1012.46
2017-06-02T05:10:35.708Z,1012.44
2017-06-02T05:11:45.929Z,1012.46
2017-06-02T05:12:55.840Z,1012.42
2017-06-02T05:14:05.755Z,1012.46
2017-06-02T05:15:15.351Z,1012.46
2017-06-02T05:16:25.273Z,1012.43
2017-06-02T05:17:35.342Z,1012.44
2017-06-02T05:18:45.272Z,1012.39
2017-06-02T05:19:54.582Z,1012.37
2017-06-02T05:21:04.263Z,1012.39
2017-06-02T05:22:14.247Z,1012.37
2017-06-02T05:23:24.523Z,1012.38
2017-06-02T05:24:34.434Z,1012.4
2017-06-02T05:25:44.039Z,1012.43
2017-06-02T05:26:53.954Z,1012.42
2017-06-02T05:28:03.864Z,1012.43
2017-06-02T05:29:13.801Z,1012.41
2017-06-02T05:30:23.412Z,1012.41
2017-06-02T05:31:32.700Z,1012.41
2017-06-02T05:32:42.007Z,1012.4
2017-06-02T05:33:51.608Z,1012.39
2017-06-02T05:35:01.879Z,1012.4
2017-06-02T05:36:11.485Z,1012.41
2017-06-02T05:37:21.101Z,1012.38
2017-06-02T05:38:30.713Z,1012.43
2017-06-02T05:39:40.632Z,1012.37
2017-06-02T05:40:51.198Z,1012.37
2017-06-02T05:42:01.423Z,1012.36
2017-06-02T05:43:11.034Z,1012.39
2017-06-02T05:44:20.024Z,1012.36
2017-06-02T05:45:29.636Z,1012.4
2017-06-02T05:46:39.703Z,1012.35
2017-06-02T05:47:49.638Z,1012.38
2017-06-02T05:48:59.558Z,1012.35
2017-06-02T05:50:09.555Z,1012.36
2017-06-02T05:51:19.485Z,1012.37
2017-06-02T05:52:29.091Z,1012.37
2017-06-02T05:53:39.335Z,1012.36
2017-06-02T05:54:49.551Z,1012.42
2017-06-02T05:55:59.463Z,1012.37
2017-06-02T05:57:09.394Z,1012.4
2017-06-02T05:58:18.502Z,1012.39
2017-06-02T05:59:28.179Z,1012.43
2017-06-02T06:00:37.185Z,1012.41
2017-06-02T06:01:47.429Z,1012.42
2017-06-02T06:02:57.084Z,1012.37
2017-06-02T06:04:07.450Z,1012.41
2017-06-02T06:05:17.061Z,1012.41
2017-06-02T06:06:27.312Z,1012.39
2017-06-02T06:07:36.944Z,1012.34
2017-06-02T06:08:46.857Z,1012.37
2017-06-02T06:09:56.311Z,1012.36
2017-06-02T06:11:06.242Z,1012.34
2017-06-02T06:12:16.474Z,1012.32
2017-06-02T06:13:26.390Z,1012.31
2017-06-02T06:14:36.304Z,1012.34
2017-06-02T06:15:46.643Z,1012.38
2017-06-02T06:16:55.944Z,1012.34
2017-06-02T06:18:06.173Z,1012.38
2017-06-02T06:19:15.782Z,1012.37
2017-06-02T06:20:26.004Z,1012.38
2017-06-02T06:21:36.230Z,1012.38
2017-06-02T06:22:46.149Z,1012.4
2017-06-02T06:23:56.069Z,1012.41
2017-06-02T06:25:06.277Z,1012.41
2017-06-02T06:26:16.243Z,1012.43
2017-06-02T06:27:26.206Z,1012.4
2017-06-02T06:28:36.134Z,1012.42
2017-06-02T06:29:46.304Z,1012.47
2017-06-02T06:30:56.231Z,1012.46
2017-06-02T06:32:05.850Z,1012.44
2017-06-02T06:33:15.924Z,1012.44
2017-06-02T06:34:26.170Z,1012.45
2017-06-02T06:35:36.127Z,1012.43
2017-06-02T06:36:46.040Z,1012.41
2017-06-02T06:37:55.969Z,1012.4
2017-06-02T06:39:05.981Z,1012.41
2017-06-02T06:40:15.924Z,1012.42
2017-06-02T06:41:25.870Z,1012.42
2017-06-02T06:42:35.171Z,1012.44
2017-06-02T06:43:45.406Z,1012.4
2017-06-02T06:44:55.673Z,1012.37
2017-06-02T06:46:05.607Z,1012.39
2017-06-02T06:47:15.226Z,1012.41
2017-06-02T06:48:25.153Z,1012.4
2017-06-02T06:49:34.756Z,1012.42
2017-06-02T06:50:44.713Z,1012.44
2017-06-02T06:51:54.952Z,1012.45
2017-06-02T06:53:04.574Z,1012.41
2017-06-02T06:54:14.179Z,1012.4
2017-06-02T06:55:23.770Z,1012.4
2017-06-02T06:56:33.483Z,1012.39
2017-06-02T06:57:43.741Z,1012.38
2017-06-02T06:58:53.350Z,1012.42
2017-06-02T07:00:02.969Z,1012.38
2017-06-02T07:01:12.579Z,1012.37
2017-06-02T07:02:22.533Z,1012.37
2017-06-02T07:03:32.777Z,1012.4
2017-06-02T07:04:43.005Z,1012.37
2017-06-02T07:05:52.928Z,1012.35
2017-06-02T07:07:02.831Z,1012.33
2017-06-02T07:08:12.629Z,1012.35
2017-06-02T07:09:22.857Z,1012.32
2017-06-02T07:10:32.817Z,1012.36
2017-06-02T07:11:43.052Z,1012.3
2017-06-02T07:12:52.654Z,1012.32
2017-06-02T07:14:02.729Z,1012.29
2017-06-02T07:15:12.046Z,1012.31
2017-06-02T07:16:22.464Z,1012.31
2017-06-02T07:17:32.376Z,1012.31
2017-06-02T07:18:41.973Z,1012.32
2017-06-02T07:19:51.304Z,1012.32
2017-06-02T07:21:01.224Z,1012.34
2017-06-02T07:22:10.826Z,1012.33
2017-06-02T07:23:20.735Z,1012.29
2017-06-02T07:24:30.645Z,1012.29
2017-06-02T07:25:40.553Z,1012.34
2017-06-02T07:26:50.154Z,1012.33
2017-06-02T07:28:00.078Z,1012.34
2017-06-02T07:29:09.693Z,1012.34
2017-06-02T07:30:19.925Z,1012.32
2017-06-02T07:31:30.318Z,1012.27
2017-06-02T07:32:40.245Z,1012.33
2017-06-02T07:33:49.559Z,1012.27
2017-06-02T07:34:58.865Z,1012.28
2017-06-02T07:36:08.168Z,1012.27
2017-06-02T07:37:17.609Z,1012.3
2017-06-02T07:38:27.879Z,1012.27
2017-06-02T07:39:36.899Z,1012.24
2017-06-02T07:40:47.129Z,1012.25
2017-06-02T07:41:57.354Z,1012.25
2017-06-02T07:43:07.338Z,1012.26
2017-06-02T07:44:16.947Z,1012.24
2017-06-02T07:45:26.872Z,1012.29
2017-06-02T07:46:37.112Z,1012.28
2017-06-02T07:47:47.031Z,1012.23
2017-06-02T07:48:57.088Z,1012.3
2017-06-02T07:50:06.717Z,1012.29
2017-06-02T07:51:16.631Z,1012.29
2017-06-02T07:52:26.534Z,1012.29
2017-06-02T07:53:36.448Z,1012.31
2017-06-02T07:54:46.719Z,1012.32
2017-06-02T07:55:56.397Z,1012.32
2017-06-02T07:57:06.333Z,1012.29
2017-06-02T07:58:16.558Z,1012.34
2017-06-02T07:59:26.198Z,1012.29
2017-06-02T08:00:35.822Z,1012.28
2017-06-02T08:01:46.050Z,1012.27
2017-06-02T08:02:55.653Z,1012.27
2017-06-02T08:04:05.875Z,1012.25
2017-06-02T08:05:15.499Z,1012.25
2017-06-02T08:06:25.464Z,1012.2
2017-06-02T08:07:34.790Z,1012.22
2017-06-02T08:08:44.400Z,1012.21
2017-06-02T08:09:53.701Z,1012.2
2017-06-02T08:11:03.621Z,1012.14
2017-06-02T08:12:13.846Z,1012.18
2017-06-02T08:13:23.771Z,1012.21
2017-06-02T08:14:33.390Z,1012.19
2017-06-02T08:15:43.614Z,1012.19
2017-06-02T08:16:53.225Z,1012.18
2017-06-02T08:18:03.297Z,1012.21
2017-06-02T08:19:13.231Z,1012.2
2017-06-02T08:20:23.468Z,1012.18
2017-06-02T08:21:33.390Z,1012.19
2017-06-02T08:22:43.314Z,1012.19
2017-06-02T08:23:52.934Z,1012.18
2017-06-02T08:25:03.166Z,1012.2
2017-06-02T08:26:13.105Z,1012.15
2017-06-02T08:27:23.094Z,1012.14
2017-06-02T08:28:32.714Z,1012.18
2017-06-02T08:29:42.780Z,1012.14
2017-06-02T08:30:52.089Z,1012.19
2017-06-02T08:32:01.712Z,1012.12
2017-06-02T08:33:11.332Z,1012.16
2017-06-02T08:34:21.250Z,1012.12
2017-06-02T08:35:30.906Z,1012.16
2017-06-02T08:36:41.143Z,1012.16
2017-06-02T08:37:50.150Z,1012.14
2017-06-02T08:38:59.756Z,1012.1
2017-06-02T08:40:09.365Z,1012.09
2017-06-02T08:41:19.713Z,1012.08
2017-06-02T08:42:29.329Z,1012.08
2017-06-02T08:43:38.962Z,1012.11
2017-06-02T08:44:48.576Z,1012.12
2017-06-02T08:45:58.204Z,1012.13
2017-06-02T08:47:07.990Z,1012.06
2017-06-02T08:48:17.611Z,1012.05
2017-06-02T08:49:27.524Z,1012.05
2017-06-02T08:50:37.435Z,1012.08
2017-06-02T08:51:47.374Z,1012.08
2017-06-02T08:52:57.332Z,1012.08
2017-06-02T08:54:07.291Z,1012.09
2017-06-02T08:55:16.919Z,1012.04
2017-06-02T08:56:26.851Z,1012.09
2017-06-02T08:57:36.848Z,1012.05
2017-06-02T08:58:47.067Z,1012.08
2017-06-02T08:59:56.984Z,1012.09
2017-06-02T09:01:06.584Z,1012.07
2017-06-02T09:02:16.813Z,1012.09
2017-06-02T09:03:26.430Z,1012.08
2017-06-02T09:04:36.643Z,1012.03
2017-06-02T09:05:46.562Z,1012.05
2017-06-02T09:06:56.485Z,1012.05
2017-06-02T09:08:06.101Z,1012.06
2017-06-02T09:09:15.405Z,1012.04
2017-06-02T09:10:25.470Z,1012.05
2017-06-02T09:11:35.389Z,1012.03
2017-06-02T09:12:44.999Z,1012.08
2017-06-02T09:13:54.303Z,1012.06
2017-06-02T09:15:04.219Z,1012.09
2017-06-02T09:16:13.883Z,1012.05
2017-06-02T09:17:23.794Z,1012.04
2017-06-02T09:18:34.017Z,1012.02
2017-06-02T09:19:43.951Z,1012.01
2017-06-02T09:20:53.878Z,1012.04
2017-06-02T09:22:03.859Z,1012.04
2017-06-02T09:23:13.468Z,1011.98
2017-06-02T09:24:22.761Z,1011.97
2017-06-02T09:25:32.089Z,1011.96
2017-06-02T09:26:42.327Z,1011.95
2017-06-02T09:27:52.701Z,1011.96
2017-06-02T09:29:02.306Z,1011.94
2017-06-02T09:30:11.613Z,1011.92
2017-06-02T09:31:21.835Z,1011.94
2017-06-02T09:32:32.082Z,1011.92
2017-06-02T09:33:42.004Z,1011.93
2017-06-02T09:34:52.249Z,1011.9
2017-06-02T09:36:01.562Z,1011.9
2017-06-02T09:37:11.215Z,1011.89
2017-06-02T09:38:21.138Z,1011.9
2017-06-02T09:39:30.591Z,1011.94
2017-06-02T09:40:40.876Z,1011.95
2017-06-02T09:41:49.864Z,1011.91
2017-06-02T09:43:00.085Z,1011.86
2017-06-02T09:44:10.008Z,1011.9
2017-06-02T09:45:19.737Z,1011.88
2017-06-02T09:46:29.350Z,1011.9
2017-06-02T09:47:39.266Z,1011.91
2017-06-02T09:48:48.267Z,1011.9
2017-06-02T09:49:57.881Z,1011.9
2017-06-02T09:51:07.247Z,1011.86
2017-06-02T09:52:17.189Z,1011.88
2017-06-02T09:53:27.443Z,1011.87
2017-06-02T09:54:37.075Z,1011.85
2017-06-02T09:55:47.295Z,1011.89
2017-06-02T09:56:57.624Z,1011.87
2017-06-02T09:58:07.543Z,1011.9
2017-06-02T09:59:17.787Z,1011.91
2017-06-02T10:00:27.722Z,1011.92
2017-06-02T10:01:37.642Z,1011.92
2017-06-02T10:02:47.659Z,1011.93
2017-06-02T10:03:57.270Z,1011.88
2017-06-02T10:05:06.878Z,1011.89
2017-06-02T10:06:16.821Z,1011.91
2017-06-02T10:07:27.052Z,1011.87
2017-06-02T10:08:37.300Z,1011.81
2017-06-02T10:09:47.268Z,1011.84
2017-06-02T10:10:57.192Z,1011.8
2017-06-02T10:12:07.118Z,1011.78
2017-06-02T10:13:16.735Z,1011.78
2017-06-02T10:14:26.493Z,1011.76
2017-06-02T10:15:35.833Z,1011.76
2017-06-02T10:16:46.063Z,1011.74
2017-06-02T10:17:55.962Z,1011.72
2017-06-02T10:19:05.584Z,1011.71
2017-06-02T10:20:15.358Z,1011.72
2017-06-02T10:21:25.623Z,1011.65
2017-06-02T10:22:35.848Z,1011.67
2017-06-02T10:23:45.788Z,1011.67
2017-06-02T10:24:55.403Z,1011.65
2017-06-02T10:26:05.714Z,1011.64
2017-06-02T10:27:15.316Z,1011.58
2017-06-02T10:28:24.930Z,1011.61
2017-06-02T10:29:35.147Z,1011.58
2017-06-02T10:30:44.773Z,1011.57
2017-06-02T10:31:54.692Z,1011.57
2017-06-02T10:33:04.005Z,1011.58
2017-06-02T10:34:14.229Z,1011.55
2017-06-02T10:35:24.476Z,1011.56
2017-06-02T10:36:34.415Z,1011.57
2017-06-02T10:37:44.327Z,1011.55
2017-06-02T10:38:54.545Z,1011.55
2017-06-02T10:40:04.460Z,1011.59
2017-06-02T10:41:14.396Z,1011.54
2017-06-02T10:42:24.307Z,1011.53
2017-06-02T10:43:34.222Z,1011.49
2017-06-02T10:44:44.446Z,1011.46
2017-06-02T10:45:53.749Z,1011.47
2017-06-02T10:47:03.994Z,1011.42
2017-06-02T10:48:13.912Z,1011.44
2017-06-02T10:49:23.963Z,1011.44
2017-06-02T10:50:33.572Z,1011.38
2017-06-02T10:51:42.860Z,1011.43
2017-06-02T10:52:53.102Z,1011.4
2017-06-02T10:54:03.079Z,1011.38
2017-06-02T10:55:13.098Z,1011.39
2017-06-02T10:56:23.025Z,1011.38
2017-06-02T10:57:32.949Z,1011.3
2017-06-02T10:58:43.174Z,1011.34
2017-06-02T10:59:52.488Z,1011.32
2017-06-02T11:01:02.107Z,1011.31
2017-06-02T11:02:12.086Z,1011.26
2017-06-02T11:03:22.373Z,1011.32
2017-06-02T11:04:32.285Z,1011.29
2017-06-02T11:05:42.525Z,1011.27
2017-06-02T11:06:52.843Z,1011.27
2017-06-02T11:08:03.073Z,1011.27
2017-06-02T11:09:12.680Z,1011.29
2017-06-02T11:10:22.602Z,1011.26
2017-06-02T11:11:32.834Z,1011.25
2017-06-02T11:12:42.747Z,1011.22
2017-06-02T11:13:52.674Z,1011.24
2017-06-02T11:15:02.285Z,1011.2
2017-06-02T11:16:12.218Z,1011.21
2017-06-02T11:17:22.155Z,1011.18
2017-06-02T11:18:31.859Z,1011.18
2017-06-02T11:19:42.076Z,1011.19
2017-06-02T11:20:51.387Z,1011.22
2017-06-02T11:22:01.609Z,1011.24
2017-06-02T11:23:11.840Z,1011.2
2017-06-02T11:24:21.608Z,1011.22
2017-06-02T11:25:31.844Z,1011.21
2017-06-02T11:26:42.071Z,1011.21
2017-06-02T11:27:52.339Z,1011.17
2017-06-02T11:29:02.269Z,1011.18
2017-06-02T11:30:11.927Z,1011.15
2017-06-02T11:31:22.163Z,1011.09
2017-06-02T11:32:32.392Z,1011.13
2017-06-02T11:33:41.390Z,1011.13
2017-06-02T11:34:51.618Z,1011.14
2017-06-02T11:36:01.682Z,1011.12
2017-06-02T11:37:11.004Z,1011.14
2017-06-02T11:38:21.605Z,1011.12
2017-06-02T11:39:30.905Z,1011.12
2017-06-02T11:40:40.827Z,1011.11
2017-06-02T11:41:50.334Z,1011.13
2017-06-02T11:43:00.262Z,1011.08
2017-06-02T11:44:09.557Z,1011.08
2017-06-02T11:45:19.172Z,1011.04
2017-06-02T11:46:28.787Z,1011
2017-06-02T11:47:38.861Z,1010.99
2017-06-02T11:48:49.093Z,1010.99
2017-06-02T11:49:59.035Z,1010.95
2017-06-02T11:51:08.666Z,1010.95
2017-06-02T11:52:18.884Z,1010.97
2017-06-02T11:53:28.953Z,1010.93
2017-06-02T11:54:38.874Z,1010.94
2017-06-02T11:55:49.105Z,1010.93
2017-06-02T11:56:59.325Z,1010.91
2017-06-02T11:58:09.604Z,1010.91
2017-06-02T11:59:19.530Z,1010.91
2017-06-02T12:00:29.132Z,1010.92
2017-06-02T12:01:38.432Z,1010.89
2017-06-02T12:02:48.661Z,1010.88
2017-06-02T12:03:58.268Z,1010.88
2017-06-02T12:05:08.559Z,1010.83
2017-06-02T12:06:18.481Z,1010.83
2017-06-02T12:07:28.759Z,1010.84
2017-06-02T12:08:38.381Z,1010.79
2017-06-02T12:09:47.987Z,1010.83
2017-06-02T12:10:58.213Z,1010.79
2017-06-02T12:12:08.156Z,1010.75
2017-06-02T12:13:17.766Z,1010.75
2017-06-02T12:14:27.058Z,1010.77
2017-06-02T12:15:37.293Z,1010.76
2017-06-02T12:16:46.612Z,1010.73
2017-06-02T12:17:56.575Z,1010.75
2017-06-02T12:19:06.494Z,1010.71
2017-06-02T12:20:16.413Z,1010.7
2017-06-02T12:21:26.021Z,1010.78
2017-06-02T12:22:36.079Z,1010.77
2017-06-02T12:23:46.035Z,1010.74
2017-06-02T12:24:55.644Z,1010.71
2017-06-02T12:26:04.958Z,1010.73
2017-06-02T12:27:14.270Z,1010.7
2017-06-02T12:28:24.502Z,1010.72
2017-06-02T12:29:34.743Z,1010.67
2017-06-02T12:30:44.736Z,1010.68
2017-06-02T12:31:54.666Z,1010.72
2017-06-02T12:33:04.619Z,1010.7
2017-06-02T12:34:14.243Z,1010.69
2017-06-02T12:35:24.150Z,1010.69
2017-06-02T12:36:33.454Z,1010.68
2017-06-02T12:37:43.723Z,1010.66
2017-06-02T12:38:53.375Z,1010.66
2017-06-02T12:40:03.438Z,1010.66
2017-06-02T12:41:13.375Z,1010.59
2017-06-02T12:42:23.643Z,1010.63
2017-06-02T12:43:33.248Z,1010.59
2017-06-02T12:44:42.901Z,1010.64
2017-06-02T12:45:53.640Z,1010.61
2017-06-02T12:47:03.559Z,1010.59
2017-06-02T12:48:13.205Z,1010.59
2017-06-02T12:49:22.814Z,1010.61
2017-06-02T12:50:32.731Z,1010.62
2017-06-02T12:51:42.639Z,1010.58
2017-06-02T12:52:52.557Z,1010.56
2017-06-02T12:54:02.781Z,1010.51
2017-06-02T12:55:12.684Z,1010.56
2017-06-02T12:56:22.599Z,1010.57
2017-06-02T12:57:32.011Z,1010.61
2017-06-02T12:58:41.691Z,1010.6
2017-06-02T12:59:51.612Z,1010.57
2017-06-02T13:01:01.843Z,1010.54
2017-06-02T13:02:11.773Z,1010.54
2017-06-02T13:03:20.925Z,1010.55
2017-06-02T13:04:30.563Z,1010.55
2017-06-02T13:05:40.198Z,1010.53
2017-06-02T13:06:49.497Z,1010.62
2017-06-02T13:07:59.435Z,1010.57
2017-06-02T13:09:09.709Z,1010.55
2017-06-02T13:10:19.326Z,1010.54
2017-06-02T13:11:28.940Z,1010.53
2017-06-02T13:12:39.152Z,1010.49
2017-06-02T13:13:48.769Z,1010.52
2017-06-02T13:14:58.824Z,1010.54
2017-06-02T13:16:09.074Z,1010.52
2017-06-02T13:17:19.330Z,1010.52
2017-06-02T13:18:29.569Z,1010.44
2017-06-02T13:19:39.796Z,1010.46
2017-06-02T13:20:49.199Z,1010.45
2017-06-02T13:21:59.137Z,1010.51
2017-06-02T13:23:09.069Z,1010.44
2017-06-02T13:24:18.669Z,1010.41
2017-06-02T13:25:28.300Z,1010.46
2017-06-02T13:26:38.310Z,1010.42
2017-06-02T13:27:48.270Z,1010.43
2017-06-02T13:28:58.187Z,1010.38
2017-06-02T13:30:07.516Z,1010.31
2017-06-02T13:31:17.769Z,1010.3
2017-06-02T13:32:27.787Z,1010.3
2017-06-02T13:33:38.105Z,1010.31
2017-06-02T13:34:47.729Z,1010.3
2017-06-02T13:35:57.650Z,1010.26
2017-06-02T13:37:07.251Z,1010.32
2017-06-02T13:38:17.390Z,1010.3
2017-06-02T13:39:26.727Z,1010.3
2017-06-02T13:40:36.662Z,1010.3
2017-06-02T13:41:46.578Z,1010.31
2017-06-02T13:42:56.811Z,1010.26
2017-06-02T13:44:06.524Z,1010.27
2017-06-02T13:45:16.440Z,1010.26
2017-06-02T13:46:26.378Z,1010.23
2017-06-02T13:47:36.295Z,1010.18
2017-06-02T13:48:46.203Z,1010.17
2017-06-02T13:49:55.545Z,1010.19
2017-06-02T13:51:05.152Z,1010.13
2017-06-02T13:52:14.763Z,1010.16
2017-06-02T13:53:24.681Z,1010.09
2017-06-02T13:54:34.588Z,1010.11
2017-06-02T13:55:44.870Z,1010.16
2017-06-02T13:56:54.800Z,1010.15
2017-06-02T13:58:04.477Z,1010.13
2017-06-02T13:59:14.716Z,1010.14
2017-06-02T14:00:24.960Z,1010.13
2017-06-02T14:01:34.947Z,1010.1
2017-06-02T14:02:44.286Z,1010.09
2017-06-02T14:03:54.549Z,1010.07
2017-06-02T14:05:04.193Z,1010.07
2017-06-02T14:06:13.821Z,1010.03
2017-06-02T14:07:23.495Z,1010.05
2017-06-02T14:08:33.418Z,1010.06